Time;durP1;ratioP1;P1;durP2;ratioP2;P2;SDS_P1;SDS_P2;PMS_P1;PMS_P2;Temp;Humidity;BMP_temperature;BMP_pressure;BME280_temperature;BME280_humidity;BME280_pressure;Samples;Min_cycle;Max_cycle;Signal;HPM_P1;HPM_P2
2022/12/23 00:00:19;;;;;;;2.77;2.57;;;10.20;99.90;;;;;;5015402;28;20230;-72
2022/12/23 00:02:45;;;;;;;2.67;2.50;;;10.20;99.90;;;;;;5015542;28;20447;-72
2022/12/23 00:05:11;;;;;;;2.50;2.33;;;10.20;99.90;;;;;;5012757;28;20465;-72
2022/12/23 00:07:37;;;;;;;4.60;2.77;;;10.20;99.90;;;;;;5031827;28;20231;-73
2022/12/23 00:10:03;;;;;;;2.90;2.70;;;10.20;99.90;;;;;;5016512;28;20481;-72
2022/12/23 00:15:13;;;;;;;2.00;1.80;;;10.20;99.90;;;;;;5042837;28;20273;-72
2022/12/23 00:17:43;;;;;;;2.80;1.90;;;10.20;99.90;;;;;;5015163;28;20455;-72
2022/12/23 00:20:12;;;;;;;2.10;1.90;;;10.20;99.90;;;;;;5030470;28;20302;-73
2022/12/23 00:25:39;;;;;;;3.07;1.50;;;10.20;99.90;;;;;;5044395;28;20958;-72
2022/12/23 00:28:19;;;;;;;2.57;2.17;;;10.20;99.90;;;;;;5028980;28;20444;-72
2022/12/23 00:30:50;;;;;;;3.07;1.70;;;10.20;99.90;;;;;;5012147;28;20978;-72
2022/12/23 00:33:21;;;;;;;3.90;2.60;;;10.20;99.90;;;;;;5031552;28;20537;-72
2022/12/23 00:35:47;;;;;;;3.07;2.43;;;10.20;99.90;;;;;;5026467;28;20474;-73
2022/12/23 00:38:14;;;;;;;2.37;1.80;;;10.20;99.90;;;;;;5028003;28;20509;-73
2022/12/23 00:43:24;;;;;;;4.63;2.70;;;10.20;99.90;;;;;;5025468;28;20447;-72
2022/12/23 00:45:50;;;;;;;3.60;3.10;;;10.20;99.90;;;;;;5025262;28;20837;-73
2022/12/23 00:50:59;;;;;;;4.03;2.90;;;10.10;99.90;;;;;;5047534;28;20232;-74
2022/12/23 00:53:25;;;;;;;3.80;3.00;;;10.20;99.90;;;;;;5020853;28;20462;-73
2022/12/23 00:55:51;;;;;;;3.07;2.77;;;10.10;99.90;;;;;;5042271;28;20224;-73
2022/12/23 00:58:18;;;;;;;2.63;2.43;;;10.10;99.90;;;;;;5028896;28;20302;-73
2022/12/23 01:06:15;;;;;;;5.47;3.60;;;10.10;99.90;;;;;;5045301;28;20458;-73
2022/12/23 01:08:41;;;;;;;4.40;3.43;;;10.10;99.90;;;;;;5046998;28;20829;-72
2022/12/23 01:11:09;;;;;;;3.90;3.07;;;10.20;99.90;;;;;;5055855;28;20559;-72
2022/12/23 01:13:35;;;;;;;3.50;2.97;;;10.10;99.90;;;;;;5047472;28;20541;-73
2022/12/23 01:16:09;;;;;;;4.07;3.00;;;10.10;99.90;;;;;;5029692;28;20462;-73
2022/12/23 01:18:36;;;;;;;5.17;3.17;;;10.10;99.90;;;;;;5030193;28;20459;-72
2022/12/23 01:21:04;;;;;;;4.87;3.20;;;10.10;99.90;;;;;;5047784;28;20443;-73
2022/12/23 01:23:31;;;;;;;7.17;3.20;;;10.10;99.90;;;;;;5013652;28;20548;-73
2022/12/23 01:26:02;;;;;;;5.33;2.93;;;10.10;99.90;;;;;;5030836;28;20469;-73
2022/12/23 01:28:29;;;;;;;2.87;2.60;;;10.10;99.90;;;;;;5049394;28;20469;-73
2022/12/23 01:30:55;;;;;;;2.90;2.37;;;10.10;99.90;;;;;;5050757;28;20493;-73
2022/12/23 01:33:21;;;;;;;1.90;1.40;;;10.00;99.90;;;;;;5051458;28;20462;-72
2022/12/23 01:35:46;;;;;;;1.80;1.57;;;10.10;99.90;;;;;;5031514;28;20223;-72
2022/12/23 01:38:13;;;;;;;2.07;1.87;;;10.10;99.90;;;;;;5046656;28;20224;-72
2022/12/23 01:40:41;;;;;;;1.33;1.10;;;10.10;99.90;;;;;;5035388;28;20751;-73
2022/12/23 01:43:14;;;;;;;1.20;1.10;;;10.10;99.90;;;;;;5015719;28;20455;-74
2022/12/23 01:45:40;;;;;;;1.30;1.20;;;10.10;99.90;;;;;;5048861;28;20469;-73
2022/12/23 01:48:21;;;;;;;1.10;1.00;;;10.10;99.90;;;;;;5036497;28;20462;-72
2022/12/23 01:50:54;;;;;;;0.93;0.90;;;10.00;99.90;;;;;;5016799;28;20318;-73
2022/12/23 01:53:34;;;;;;;1.10;1.00;;;10.00;99.90;;;;;;5030834;28;20512;-73
2022/12/23 01:56:04;;;;;;;1.13;1.07;;;10.10;99.90;;;;;;5017277;28;20496;-73
2022/12/23 01:58:36;;;;;;;1.10;0.90;;;10.00;99.90;;;;;;5026816;28;20465;-73
2022/12/23 02:03:51;;;;;;;1.20;0.93;;;10.00;99.90;;;;;;5026159;28;20497;-73
2022/12/23 02:09:20;;;;;;;0.47;0.47;;;10.00;99.90;;;;;;5045092;28;20480;-73
2022/12/23 02:12:08;;;;;;;1.80;0.60;;;10.10;99.90;;;;;;5032735;28;20486;-73
2022/12/23 02:18:04;;;;;;;0.63;0.63;;;10.00;99.90;;;;;;5014486;28;20454;-73
2022/12/23 02:20:37;;;;;;;0.73;0.60;;;10.00;99.90;;;;;;5029788;28;20458;-74
2022/12/23 02:23:22;;;;;;;1.20;0.87;;;10.10;99.90;;;;;;5032710;28;20435;-72
2022/12/23 02:26:15;;;;;;;1.50;0.80;;;10.10;99.90;;;;;;5037572;28;20536;-73
2022/12/23 02:29:18;;;;;;;0.80;0.80;;;10.10;99.90;;;;;;5031608;28;20600;-72
2022/12/23 02:31:47;;;;;;;1.50;1.20;;;10.00;99.90;;;;;;5030824;28;20459;-73
2022/12/23 02:34:22;;;;;;;1.87;1.63;;;10.00;99.90;;;;;;5032913;28;20458;-72
2022/12/23 02:37:16;;;;;;;1.70;1.30;;;10.00;99.90;;;;;;5030199;28;20552;-72
2022/12/23 02:39:55;;;;;;;2.20;1.90;;;10.00;99.90;;;;;;5030727;28;20466;-73
2022/12/23 02:42:30;;;;;;;2.80;2.47;;;10.00;99.90;;;;;;5030133;28;20451;-72
2022/12/23 02:45:07;;;;;;;2.77;2.20;;;9.90;99.90;;;;;;5015211;28;20530;-72
2022/12/23 02:47:39;;;;;;;2.80;2.47;;;9.70;99.90;;;;;;5032679;28;20537;-72
2022/12/23 02:50:10;;;;;;;7.53;3.20;;;9.60;99.90;;;;;;5024302;28;20518;-73
2022/12/23 02:52:37;;;;;;;4.40;2.87;;;9.50;99.90;;;;;;5029032;28;20450;-73
2022/12/23 02:55:13;;;;;;;4.73;2.70;;;9.60;99.90;;;;;;5016006;28;20454;-72
2022/12/23 02:57:45;;;;;;;5.67;3.00;;;9.60;99.90;;;;;;5032652;28;20454;-72
2022/12/23 03:00:11;;;;;;;3.90;2.70;;;9.60;99.90;;;;;;5049570;28;20973;-73
2022/12/23 03:02:39;;;;;;;3.30;2.73;;;9.50;99.90;;;;;;5050801;28;20446;-73
2022/12/23 03:05:05;;;;;;;2.67;1.90;;;9.30;99.90;;;;;;5016756;28;20451;-72
2022/12/23 03:07:41;;;;;;;3.00;1.70;;;9.20;99.90;;;;;;4997191;28;20459;-72
2022/12/23 03:10:16;;;;;;;2.63;2.00;;;9.20;99.90;;;;;;5030952;28;20454;-73
2022/12/23 03:13:03;;;;;;;2.37;2.17;;;9.30;99.90;;;;;;5031607;28;20537;-73
2022/12/23 03:15:48;;;;;;;1.93;1.63;;;9.40;99.90;;;;;;5029234;28;20454;-73
2022/12/23 03:18:19;;;;;;;3.70;2.13;;;9.50;99.90;;;;;;5023930;28;20447;-72
2022/12/23 03:21:14;;;;;;;4.40;2.47;;;9.60;99.90;;;;;;5027434;28;20465;-73
2022/12/23 03:24:09;;;;;;;2.93;2.23;;;9.50;99.90;;;;;;4993175;28;20450;-72
2022/12/23 03:26:44;;;;;;;4.10;2.57;;;9.40;99.90;;;;;;5034342;28;20519;-72
2022/12/23 03:29:27;;;;;;;5.53;3.77;;;9.20;99.90;;;;;;5006078;28;20906;-73
2022/12/23 03:31:56;;;;;;;4.57;2.77;;;9.20;99.90;;;;;;5030600;28;20501;-72
2022/12/23 03:34:27;;;;;;;3.30;2.73;;;9.20;99.90;;;;;;5032228;28;20454;-73
2022/12/23 03:36:56;;;;;;;3.50;2.70;;;9.20;99.90;;;;;;5015124;28;20484;-72
2022/12/23 03:39:33;;;;;;;3.83;2.00;;;9.30;99.90;;;;;;5022119;28;20549;-73
2022/12/23 03:42:10;;;;;;;3.67;2.93;;;9.30;99.90;;;;;;5032109;28;20486;-73
2022/12/23 03:44:41;;;;;;;3.37;2.43;;;9.40;99.90;;;;;;5032110;28;20493;-73
2022/12/23 03:47:09;;;;;;;3.60;2.30;;;9.50;99.90;;;;;;4995433;28;21240;-73
2022/12/23 03:49:40;;;;;;;2.50;1.90;;;9.50;99.90;;;;;;5021055;28;21302;-73
2022/12/23 03:52:13;;;;;;;2.33;1.60;;;9.50;99.90;;;;;;5014773;28;20974;-73
2022/12/23 03:54:45;;;;;;;2.00;1.70;;;9.50;99.90;;;;;;5049678;28;20458;-73
2022/12/23 03:57:12;;;;;;;2.87;1.80;;;9.50;99.90;;;;;;5011511;28;20535;-72
2022/12/23 03:59:49;;;;;;;3.60;1.83;;;9.50;99.90;;;;;;5029680;28;20474;-73
2022/12/23 04:02:19;;;;;;;1.80;1.70;;;9.50;99.90;;;;;;5043463;28;20470;-72
2022/12/23 04:05:09;;;;;;;1.50;1.40;;;9.50;99.90;;;;;;5031613;28;20466;-73
2022/12/23 04:07:53;;;;;;;1.70;1.60;;;9.50;99.90;;;;;;5030731;28;20497;-73
2022/12/23 04:10:20;;;;;;;2.00;1.80;;;9.50;99.90;;;;;;5031418;28;21100;-72
2022/12/23 04:12:46;;;;;;;2.23;1.60;;;9.40;99.90;;;;;;5031592;28;20931;-72
2022/12/23 04:15:12;;;;;;;1.87;1.57;;;9.40;99.90;;;;;;5032438;28;20446;-72
2022/12/23 04:17:38;;;;;;;1.27;1.17;;;9.40;99.90;;;;;;5048378;28;20815;-72
2022/12/23 04:20:05;;;;;;;2.30;1.70;;;9.40;99.90;;;;;;5027742;28;20223;-72
2022/12/23 04:22:30;;;;;;;1.60;1.47;;;9.30;99.90;;;;;;5011266;28;20223;-73
2022/12/23 04:24:56;;;;;;;2.10;1.80;;;9.30;99.90;;;;;;5031356;28;20473;-73
2022/12/23 04:27:21;;;;;;;1.60;1.40;;;9.30;99.90;;;;;;5030753;28;20220;-73
2022/12/23 04:29:47;;;;;;;2.60;1.57;;;9.30;99.90;;;;;;5030899;28;20224;-72
2022/12/23 04:32:13;;;;;;;2.97;1.70;;;9.20;99.90;;;;;;5031549;28;20219;-72
2022/12/23 04:34:38;;;;;;;2.63;1.30;;;9.20;99.90;;;;;;5049547;28;20238;-72
2022/12/23 04:37:04;;;;;;;1.93;1.73;;;9.20;99.90;;;;;;5034960;28;20239;-72
2022/12/23 04:39:30;;;;;;;3.80;2.73;;;9.00;99.90;;;;;;5027803;28;20207;-73
2022/12/23 04:41:55;;;;;;;2.07;1.87;;;9.10;99.90;;;;;;5030832;28;20587;-72
2022/12/23 04:44:21;;;;;;;1.90;1.80;;;9.10;99.90;;;;;;5032051;28;20314;-73
2022/12/23 04:46:46;;;;;;;1.60;1.50;;;9.00;99.90;;;;;;5031594;28;20215;-71
2022/12/23 04:49:12;;;;;;;3.00;1.60;;;9.00;99.90;;;;;;5029485;28;20242;-72
2022/12/23 04:51:38;;;;;;;1.43;1.33;;;9.00;99.90;;;;;;5030061;28;20232;-73
2022/12/23 04:54:03;;;;;;;1.90;1.53;;;9.00;99.90;;;;;;5024612;28;20212;-72
2022/12/23 04:56:29;;;;;;;0.80;0.80;;;9.00;99.90;;;;;;5048663;28;20216;-72
2022/12/23 04:58:55;;;;;;;2.27;1.57;;;8.90;99.90;;;;;;5029048;28;20679;-72
2022/12/23 05:01:20;;;;;;;1.10;1.00;;;8.90;99.90;;;;;;5028536;28;20215;-73
2022/12/23 05:03:46;;;;;;;1.27;1.17;;;8.90;99.90;;;;;;5010359;28;20327;-73
2022/12/23 05:06:12;;;;;;;3.07;1.20;;;8.90;99.90;;;;;;5047956;28;20272;-73
2022/12/23 05:08:37;;;;;;;2.20;1.43;;;8.90;99.90;;;;;;5029399;28;20212;-73
2022/12/23 05:11:03;;;;;;;2.23;1.33;;;8.90;99.90;;;;;;5023818;28;20227;-70
2022/12/23 05:13:29;;;;;;;1.80;1.30;;;8.90;99.90;;;;;;5029008;28;20629;-73
2022/12/23 05:15:55;;;;;;;1.67;1.57;;;8.80;99.90;;;;;;5028917;28;20220;-73
2022/12/23 05:18:21;;;;;;;1.93;1.30;;;8.80;99.90;;;;;;5047647;28;20250;-72
2022/12/23 05:20:48;;;;;;;1.93;1.60;;;8.60;99.90;;;;;;5049236;28;20474;-72
2022/12/23 05:23:13;;;;;;;1.30;1.17;;;8.50;99.90;;;;;;5030582;28;20476;-72
2022/12/23 05:25:39;;;;;;;1.20;1.10;;;8.40;99.90;;;;;;5030237;28;20451;-73
2022/12/23 05:28:06;;;;;;;1.23;1.13;;;8.40;99.90;;;;;;5029498;28;20216;-72
2022/12/23 05:30:32;;;;;;;1.60;1.27;;;8.30;99.90;;;;;;5044760;28;20235;-72
2022/12/23 05:32:58;;;;;;;1.30;1.20;;;8.50;99.90;;;;;;5029787;28;20545;-72
2022/12/23 05:35:25;;;;;;;1.90;1.70;;;8.50;99.90;;;;;;5026925;28;20467;-72
2022/12/23 05:37:51;;;;;;;1.13;1.00;;;8.60;99.90;;;;;;5029266;28;20307;-73
2022/12/23 05:40:17;;;;;;;1.20;1.10;;;8.60;99.90;;;;;;5029864;28;20971;-73
2022/12/23 05:42:43;;;;;;;1.20;1.10;;;8.50;99.90;;;;;;5030259;28;20458;-72
2022/12/23 05:45:09;;;;;;;1.23;1.13;;;8.50;99.90;;;;;;5048546;28;20480;-73
2022/12/23 05:47:35;;;;;;;1.60;1.30;;;8.60;99.90;;;;;;5031228;28;20223;-73
2022/12/23 05:50:01;;;;;;;1.87;1.10;;;8.60;99.90;;;;;;5015386;28;20231;-72
2022/12/23 05:52:26;;;;;;;1.20;1.10;;;8.60;99.90;;;;;;5019194;28;20319;-72
2022/12/23 05:54:52;;;;;;;1.47;1.37;;;8.50;99.90;;;;;;5010775;28;20553;-72
2022/12/23 05:57:18;;;;;;;6.37;1.70;;;8.60;99.90;;;;;;5027679;28;20258;-73
2022/12/23 05:59:44;;;;;;;1.63;1.53;;;8.50;99.90;;;;;;5022613;28;20213;-71
2022/12/23 06:02:10;;;;;;;2.10;1.47;;;8.50;99.90;;;;;;5048075;28;20656;-72
2022/12/23 06:04:35;;;;;;;1.67;1.33;;;8.50;99.90;;;;;;5048871;28;20494;-72
2022/12/23 06:07:01;;;;;;;1.63;1.13;;;8.50;99.90;;;;;;5048077;28;20258;-73
2022/12/23 06:09:26;;;;;;;1.27;1.07;;;8.50;99.90;;;;;;5036379;28;20232;-71
2022/12/23 06:11:52;;;;;;;1.40;1.30;;;8.50;99.90;;;;;;5046102;28;20266;-71
2022/12/23 06:14:18;;;;;;;1.50;1.00;;;8.40;99.90;;;;;;5033024;28;20220;-72
2022/12/23 06:16:43;;;;;;;4.77;1.93;;;8.40;99.90;;;;;;5051599;28;20223;-71
2022/12/23 06:19:09;;;;;;;3.13;1.47;;;8.40;99.90;;;;;;5030884;28;20220;-70
2022/12/23 06:21:35;;;;;;;1.30;1.00;;;8.30;99.90;;;;;;5052477;28;20285;-70
2022/12/23 06:24:00;;;;;;;1.00;0.87;;;8.30;99.90;;;;;;5012240;28;20636;-70
2022/12/23 06:26:26;;;;;;;2.07;1.90;;;8.30;99.90;;;;;;5034260;28;20216;-71
2022/12/23 06:28:52;;;;;;;4.17;2.83;;;8.30;99.90;;;;;;5006517;28;20228;-71
2022/12/23 06:31:17;;;;;;;3.50;2.20;;;8.30;99.90;;;;;;5033017;28;20231;-71
2022/12/23 06:33:43;;;;;;;1.80;1.70;;;8.20;99.90;;;;;;5050991;28;20223;-71
2022/12/23 06:36:09;;;;;;;1.17;1.07;;;8.20;99.90;;;;;;5040142;28;20319;-70
2022/12/23 06:38:34;;;;;;;1.20;1.10;;;8.30;99.90;;;;;;5049307;28;20223;-71
2022/12/23 06:41:00;;;;;;;0.90;0.90;;;8.30;99.90;;;;;;5036547;28;20219;-71
2022/12/23 06:43:26;;;;;;;0.90;0.90;;;8.30;99.90;;;;;;5030738;28;20227;-71
2022/12/23 06:45:52;;;;;;;1.10;1.00;;;8.30;99.90;;;;;;5048799;28;20233;-71
2022/12/23 06:48:19;;;;;;;2.33;1.00;;;8.40;99.90;;;;;;5036573;28;20226;-71
2022/12/23 06:50:45;;;;;;;1.13;1.03;;;8.40;99.90;;;;;;5039681;28;20350;-71
2022/12/23 06:53:11;;;;;;;1.23;1.10;;;8.40;99.90;;;;;;5027497;28;20450;-71
2022/12/23 06:55:37;;;;;;;0.83;0.83;;;8.40;99.90;;;;;;5031129;28;20455;-71
2022/12/23 06:58:03;;;;;;;1.50;1.27;;;8.40;99.90;;;;;;5048787;28;21016;-70
2022/12/23 07:00:29;;;;;;;1.00;1.00;;;8.30;99.90;;;;;;5032759;28;20636;-71
2022/12/23 07:02:55;;;;;;;1.43;0.87;;;8.40;99.90;;;;;;5048963;28;20549;-70
2022/12/23 07:05:21;;;;;;;1.07;1.00;;;8.40;99.90;;;;;;5049995;28;20462;-71
2022/12/23 07:07:47;;;;;;;0.93;0.93;;;8.40;99.90;;;;;;5029011;28;20314;-71
2022/12/23 07:10:13;;;;;;;4.83;1.10;;;8.50;99.90;;;;;;5013175;28;20542;-71
2022/12/23 07:12:38;;;;;;;1.17;1.07;;;8.50;99.90;;;;;;5031299;28;20219;-71
2022/12/23 07:15:05;;;;;;;2.80;2.60;;;8.50;99.90;;;;;;5024453;28;20508;-70
2022/12/23 07:17:31;;;;;;;5.60;5.10;;;8.50;99.90;;;;;;5032949;28;20226;-71
2022/12/23 07:19:57;;;;;;;5.57;5.03;;;8.50;99.90;;;;;;5016082;28;20821;-71
2022/12/23 07:22:23;;;;;;;7.80;6.67;;;8.50;99.90;;;;;;5017700;28;20239;-72
2022/12/23 07:24:49;;;;;;;10.23;5.83;;;8.50;99.90;;;;;;5049624;28;20485;-71
2022/12/23 07:27:15;;;;;;;5.20;4.30;;;8.50;99.90;;;;;;5031867;28;20490;-72
2022/12/23 07:29:40;;;;;;;6.57;5.33;;;8.50;99.90;;;;;;5030972;28;20218;-70
2022/12/23 07:32:06;;;;;;;6.37;4.90;;;8.50;99.90;;;;;;5031732;28;20526;-71
2022/12/23 07:34:32;;;;;;;6.67;3.33;;;8.50;99.90;;;;;;5049832;28;20224;-71
2022/12/23 07:36:57;;;;;;;6.40;4.20;;;8.50;99.90;;;;;;5028272;28;20224;-70
2022/12/23 07:39:23;;;;;;;7.93;4.37;;;8.50;99.90;;;;;;5028317;28;20223;-72
2022/12/23 07:41:48;;;;;;;5.07;3.87;;;8.50;99.90;;;;;;5025137;28;20220;-71
2022/12/23 07:44:14;;;;;;;6.87;4.30;;;8.50;99.90;;;;;;5025394;28;20220;-71
2022/12/23 07:46:40;;;;;;;5.13;4.40;;;8.50;99.90;;;;;;5020512;28;20232;-72
2022/12/23 07:49:05;;;;;;;4.40;3.97;;;8.60;99.90;;;;;;5028091;28;20258;-72
2022/12/23 07:51:31;;;;;;;4.47;3.97;;;8.60;99.90;;;;;;5008750;28;20216;-72
2022/12/23 07:53:57;;;;;;;9.40;4.87;;;8.60;99.90;;;;;;5017764;28;20219;-71
2022/12/23 07:56:23;;;;;;;5.13;4.03;;;8.60;99.90;;;;;;5030641;28;20256;-71
2022/12/23 07:58:50;;;;;;;3.40;3.07;;;8.60;99.90;;;;;;5014336;28;20244;-71
2022/12/23 08:01:19;;;;;;;4.83;3.70;;;8.60;99.90;;;;;;5031217;28;20442;-71
2022/12/23 08:03:46;;;;;;;2.87;2.63;;;8.60;99.90;;;;;;5047675;28;20478;-72
2022/12/23 08:06:13;;;;;;;3.37;2.83;;;8.60;99.90;;;;;;5031743;28;20478;-71
2022/12/23 08:08:40;;;;;;;7.97;5.37;;;8.60;99.90;;;;;;5030132;28;20479;-72
2022/12/23 08:11:08;;;;;;;11.00;6.43;;;8.60;99.90;;;;;;5031083;28;20454;-71
2022/12/23 08:13:35;;;;;;;6.87;5.50;;;8.60;99.90;;;;;;5045018;28;20469;-71
2022/12/23 08:16:02;;;;;;;6.87;5.27;;;8.60;99.90;;;;;;5030641;28;20466;-71
2022/12/23 08:18:29;;;;;;;6.70;4.67;;;8.60;99.90;;;;;;5029447;28;20490;-72
2022/12/23 08:21:00;;;;;;;6.13;4.80;;;8.60;99.90;;;;;;5031429;28;20459;-71
2022/12/23 08:23:27;;;;;;;4.87;4.30;;;8.60;99.90;;;;;;5027673;28;20469;-71
2022/12/23 08:26:08;;;;;;;5.90;5.00;;;8.60;99.90;;;;;;5030660;28;20470;-72
2022/12/23 08:28:35;;;;;;;5.47;4.07;;;8.70;99.90;;;;;;5048264;28;20587;-71
2022/12/23 08:31:13;;;;;;;4.87;3.70;;;8.70;99.90;;;;;;5029811;28;20473;-72
2022/12/23 08:33:41;;;;;;;4.70;4.13;;;8.70;99.90;;;;;;5030774;28;20493;-71
2022/12/23 08:36:11;;;;;;;4.27;3.53;;;8.70;99.90;;;;;;5030408;28;20993;-71
2022/12/23 08:38:37;;;;;;;5.63;3.83;;;8.70;99.90;;;;;;5038937;28;20538;-71
2022/12/23 08:41:07;;;;;;;4.30;3.67;;;8.70;99.90;;;;;;5016595;28;20588;-72
2022/12/23 08:43:32;;;;;;;4.27;3.17;;;8.70;99.90;;;;;;5048826;28;20652;-71
2022/12/23 08:45:58;;;;;;;9.87;4.63;;;8.70;99.90;;;;;;5013035;28;20467;-72
2022/12/23 08:48:23;;;;;;;10.87;5.67;;;8.70;99.90;;;;;;5045427;28;20216;-71
2022/12/23 08:50:49;;;;;;;8.20;5.00;;;8.70;99.90;;;;;;5032308;28;20307;-72
2022/12/23 08:53:15;;;;;;;8.70;5.60;;;8.80;99.90;;;;;;5019869;28;20647;-72
2022/12/23 08:55:45;;;;;;;7.40;5.20;;;8.80;99.90;;;;;;5045818;28;20345;-71
2022/12/23 08:58:12;;;;;;;5.93;4.00;;;8.80;99.90;;;;;;5010984;28;20241;-71
2022/12/23 09:00:39;;;;;;;7.17;4.47;;;8.80;99.90;;;;;;5043583;28;20988;-72
2022/12/23 09:03:05;;;;;;;7.43;5.00;;;8.80;99.90;;;;;;5044309;28;20850;-71
2022/12/23 09:05:32;;;;;;;7.83;4.30;;;8.80;99.90;;;;;;5031060;28;20481;-71
2022/12/23 09:07:58;;;;;;;7.27;4.90;;;8.80;99.90;;;;;;5037848;28;20458;-72
2022/12/23 09:10:24;;;;;;;5.03;4.10;;;8.90;99.90;;;;;;5017949;28;20474;-71
2022/12/23 09:12:50;;;;;;;5.00;3.07;;;8.80;99.90;;;;;;5038995;28;20219;-71
2022/12/23 09:15:16;;;;;;;5.70;3.80;;;8.80;99.90;;;;;;5048555;28;20458;-71
2022/12/23 09:17:43;;;;;;;4.20;2.93;;;8.90;99.90;;;;;;5027948;28;20565;-71
2022/12/23 09:20:09;;;;;;;4.10;3.70;;;8.90;99.90;;;;;;5046276;28;20518;-72
2022/12/23 09:22:35;;;;;;;8.53;3.37;;;8.90;99.90;;;;;;5030188;28;20469;-72
2022/12/23 09:25:01;;;;;;;3.33;3.03;;;8.90;99.90;;;;;;5029351;28;20455;-68
2022/12/23 09:27:26;;;;;;;4.23;2.73;;;8.90;99.90;;;;;;5026440;28;20228;-71
2022/12/23 09:29:52;;;;;;;4.03;3.00;;;9.00;99.90;;;;;;5029829;28;20220;-70
2022/12/23 09:32:18;;;;;;;4.53;3.13;;;9.00;99.90;;;;;;5026751;28;20750;-71
2022/12/23 09:34:44;;;;;;;3.53;2.97;;;9.00;99.90;;;;;;5027799;28;20233;-71
2022/12/23 09:37:12;;;;;;;5.00;3.47;;;9.00;99.90;;;;;;5012419;28;20437;-71
2022/12/23 09:39:38;;;;;;;4.57;4.07;;;9.00;99.90;;;;;;5007611;28;20273;-71
2022/12/23 09:42:20;;;;;;;5.33;3.90;;;9.00;99.90;;;;;;5012797;28;20533;-72
2022/12/23 09:45:01;;;;;;;4.40;3.60;;;9.10;99.90;;;;;;5023599;28;20220;-71
2022/12/23 09:47:30;;;;;;;6.93;4.40;;;9.00;99.90;;;;;;5026324;28;20883;-71
2022/12/23 09:50:03;;;;;;;3.50;3.20;;;9.00;99.90;;;;;;5019028;28;20478;-71
2022/12/23 09:52:39;;;;;;;3.83;3.43;;;9.10;99.90;;;;;;5030773;28;20459;-72
2022/12/23 09:55:09;;;;;;;3.53;3.23;;;9.10;99.90;;;;;;5029267;28;20456;-71
2022/12/23 09:57:55;;;;;;;4.60;3.73;;;9.10;99.90;;;;;;5013881;28;20845;-73
2022/12/23 10:00:21;;;;;;;11.03;4.47;;;9.10;99.90;;;;;;5044135;28;20446;-72
2022/12/23 10:03:07;;;;;;;7.17;4.43;;;9.10;99.90;;;;;;5012539;28;20455;-72
2022/12/23 10:05:51;;;;;;;8.53;4.00;;;9.10;99.90;;;;;;5031753;28;20469;-72
2022/12/23 10:08:33;;;;;;;5.13;3.87;;;9.10;99.90;;;;;;5023073;28;21027;-72
2022/12/23 10:11:05;;;;;;;9.57;4.07;;;9.10;99.90;;;;;;5016257;28;20463;-72
2022/12/23 10:13:38;;;;;;;4.40;3.43;;;9.20;99.90;;;;;;5033427;28;20477;-71
2022/12/23 10:16:10;;;;;;;6.63;3.40;;;9.10;99.90;;;;;;5015496;28;20954;-72
2022/12/23 10:18:57;;;;;;;6.73;3.77;;;9.20;99.90;;;;;;5032798;28;20459;-72
2022/12/23 10:21:31;;;;;;;5.60;4.20;;;9.20;99.90;;;;;;5050524;28;20453;-71
2022/12/23 10:24:03;;;;;;;5.47;3.50;;;9.20;99.90;;;;;;5025062;28;20461;-71
2022/12/23 10:26:47;;;;;;;6.90;3.17;;;9.20;99.90;;;;;;5014311;28;20474;-72
2022/12/23 10:29:18;;;;;;;5.20;3.77;;;9.20;99.90;;;;;;5028173;28;20957;-72
2022/12/23 10:32:11;;;;;;;3.70;3.40;;;9.20;99.90;;;;;;5047650;28;20483;-71
2022/12/23 10:35:17;;;;;;;7.87;3.27;;;9.30;99.90;;;;;;5025157;28;20486;-72
2022/12/23 10:37:50;;;;;;;3.80;3.27;;;9.30;99.90;;;;;;4988567;28;20541;-73
2022/12/23 10:40:28;;;;;;;5.80;3.50;;;9.30;99.90;;;;;;5044062;28;20452;-71
2022/12/23 10:42:59;;;;;;;4.30;2.53;;;9.40;99.90;;;;;;5037024;28;20962;-70
2022/12/23 10:45:36;;;;;;;3.47;2.90;;;9.30;99.90;;;;;;5031907;28;20874;-71
2022/12/23 10:48:36;;;;;;;4.57;3.27;;;9.30;99.90;;;;;;5031734;28;20504;-71
2022/12/23 10:51:11;;;;;;;6.57;4.70;;;9.40;99.90;;;;;;5008205;28;20470;-71
2022/12/23 10:53:50;;;;;;;13.90;5.63;;;9.40;99.90;;;;;;5032527;28;20461;-71
2022/12/23 10:56:17;;;;;;;8.97;6.57;;;9.40;99.90;;;;;;5050945;28;20504;-71
2022/12/23 10:58:45;;;;;;;8.03;6.73;;;9.40;99.90;;;;;;5048359;28;20535;-72
2022/12/23 11:01:16;;;;;;;10.17;7.20;;;9.40;99.90;;;;;;5032263;28;20527;-71
2022/12/23 11:04:15;;;;;;;14.10;8.70;;;9.40;99.90;;;;;;5007759;28;21117;-71
2022/12/23 11:06:45;;;;;;;12.53;9.60;;;9.40;99.90;;;;;;4989178;28;20468;-72
2022/12/23 11:09:19;;;;;;;11.80;9.70;;;9.50;99.90;;;;;;5029171;28;20462;-70
2022/12/23 11:12:02;;;;;;;12.30;9.03;;;9.50;99.90;;;;;;5037767;28;20450;-72
2022/12/23 11:14:40;;;;;;;11.47;7.83;;;9.50;99.90;;;;;;5050770;28;20450;-71
2022/12/23 11:17:28;;;;;;;9.40;7.50;;;9.50;99.90;;;;;;5030729;28;20491;-71
2022/12/23 11:20:09;;;;;;;9.17;7.83;;;9.50;99.90;;;;;;5029026;28;20451;-69
2022/12/23 11:22:35;;;;;;;10.70;6.57;;;9.50;99.90;;;;;;5032753;28;21113;-72
2022/12/23 11:25:26;;;;;;;9.57;7.40;;;9.50;99.90;;;;;;5015587;28;20442;-69
2022/12/23 11:28:06;;;;;;;12.10;8.30;;;9.50;99.90;;;;;;5029352;28;20467;-70
2022/12/23 11:30:36;;;;;;;15.37;10.47;;;9.60;99.90;;;;;;5032077;28;20478;-72
2022/12/23 11:33:02;;;;;;;15.90;10.83;;;9.60;99.90;;;;;;5026781;28;20494;-71
2022/12/23 11:35:34;;;;;;;14.10;9.63;;;9.60;99.90;;;;;;5012992;28;21013;-72
2022/12/23 11:38:01;;;;;;;13.80;9.47;;;9.60;99.90;;;;;;5029012;28;20212;-71
2022/12/23 11:40:36;;;;;;;12.73;8.57;;;9.60;99.90;;;;;;5016301;28;20469;-72
2022/12/23 11:43:06;;;;;;;9.60;6.60;;;9.60;99.90;;;;;;5016999;28;21031;-71
2022/12/23 11:45:36;;;;;;;13.87;6.93;;;9.60;99.90;;;;;;5028375;28;20546;-71
2022/12/23 11:48:24;;;;;;;11.57;7.43;;;9.70;99.90;;;;;;5047589;28;21006;-70
2022/12/23 11:50:58;;;;;;;11.30;7.07;;;9.70;99.90;;;;;;5048857;28;20528;-71
2022/12/23 11:53:24;;;;;;;7.47;6.20;;;9.70;99.90;;;;;;5038928;28;20895;-71
2022/12/23 11:56:01;;;;;;;6.37;5.70;;;9.70;99.90;;;;;;5029835;28;20458;-71
2022/12/23 11:58:30;;;;;;;8.57;6.50;;;9.70;99.90;;;;;;5025367;28;20447;-71
2022/12/23 12:01:05;;;;;;;6.97;5.53;;;9.70;99.90;;;;;;5017039;28;20490;-70
2022/12/23 12:03:34;;;;;;;6.97;5.70;;;9.70;99.90;;;;;;5031649;28;20507;-72
2022/12/23 12:06:03;;;;;;;8.30;6.23;;;9.70;99.90;;;;;;5029594;28;20462;-72
2022/12/23 12:08:36;;;;;;;5.73;5.23;;;9.70;99.90;;;;;;5015401;28;20466;-72
2022/12/23 12:11:10;;;;;;;6.60;5.10;;;9.70;99.90;;;;;;5052011;28;20466;-72
2022/12/23 12:13:43;;;;;;;9.03;5.50;;;9.70;99.90;;;;;;5010654;28;20458;-71
2022/12/23 12:16:15;;;;;;;8.30;6.83;;;9.70;99.90;;;;;;5030670;28;20469;-72
2022/12/23 12:18:42;;;;;;;9.97;6.70;;;9.80;99.90;;;;;;5029537;28;20545;-71
2022/12/23 12:21:22;;;;;;;8.47;6.63;;;9.80;99.90;;;;;;5046524;28;20444;-71
2022/12/23 12:23:48;;;;;;;7.30;6.53;;;9.80;99.90;;;;;;5020251;28;21041;-72
2022/12/23 12:26:24;;;;;;;6.77;6.00;;;9.80;99.90;;;;;;5047950;28;20561;-71
2022/12/23 12:28:59;;;;;;;8.43;6.47;;;9.80;99.90;;;;;;5012822;28;20311;-72
2022/12/23 12:31:35;;;;;;;11.27;6.10;;;9.80;99.90;;;;;;5032314;28;20470;-71
2022/12/23 12:34:01;;;;;;;8.10;6.00;;;9.80;99.90;;;;;;5030693;28;20446;-71
2022/12/23 12:36:48;;;;;;;8.43;6.03;;;9.90;99.90;;;;;;5019523;28;20860;-72
2022/12/23 12:39:41;;;;;;;9.90;5.97;;;9.90;99.90;;;;;;5028500;28;20316;-72
2022/12/23 12:42:41;;;;;;;6.93;6.20;;;9.90;99.90;;;;;;5022957;28;20914;-71
2022/12/23 12:45:23;;;;;;;4.20;3.70;;;9.90;99.90;;;;;;5030305;28;20492;-72
2022/12/23 12:48:26;;;;;;;5.13;3.80;;;9.90;99.90;;;;;;5030756;28;20462;-70
2022/12/23 12:51:20;;;;;;;3.93;3.40;;;9.90;99.90;;;;;;5025479;28;20527;-71
2022/12/23 12:54:01;;;;;;;4.53;3.30;;;10.00;99.90;;;;;;5019493;28;20827;-72
2022/12/23 12:56:33;;;;;;;4.30;3.40;;;10.00;99.90;;;;;;5048129;28;20462;-71
2022/12/23 12:58:59;;;;;;;5.27;3.40;;;10.00;99.90;;;;;;5029280;28;20538;-72
2022/12/23 13:01:28;;;;;;;4.13;3.57;;;10.00;99.90;;;;;;5031313;28;20482;-71
2022/12/23 13:04:25;;;;;;;4.93;3.70;;;10.00;99.90;;;;;;5011723;28;20251;-71
2022/12/23 13:06:51;;;;;;;4.13;3.10;;;10.00;99.90;;;;;;5011557;28;20482;-71
2022/12/23 13:09:20;;;;;;;4.93;3.63;;;10.00;99.90;;;;;;5030492;28;20552;-71
2022/12/23 13:11:53;;;;;;;5.10;3.67;;;10.00;99.90;;;;;;5038821;28;20318;-71
2022/12/23 13:14:34;;;;;;;4.57;3.80;;;10.00;99.90;;;;;;5049149;28;20521;-71
2022/12/23 13:17:43;;;;;;;4.77;4.20;;;10.10;99.90;;;;;;5048528;28;20488;-71
2022/12/23 13:20:19;;;;;;;4.97;4.47;;;10.10;99.90;;;;;;5006985;28;20463;-72
2022/12/23 13:22:51;;;;;;;6.93;5.07;;;10.10;99.90;;;;;;5016658;28;20549;-72
2022/12/23 13:25:23;;;;;;;7.07;4.90;;;10.10;99.90;;;;;;5034788;28;20568;-72
2022/12/23 13:28:06;;;;;;;7.07;4.90;;;10.10;99.90;;;;;;5050339;28;20462;-71
2022/12/23 13:30:44;;;;;;;6.03;3.93;;;10.10;99.90;;;;;;5030953;28;20489;-72
2022/12/23 13:33:28;;;;;;;4.37;3.90;;;10.20;99.90;;;;;;5015944;28;20463;-72
2022/12/23 13:36:27;;;;;;;4.47;4.07;;;10.20;99.90;;;;;;5035593;28;20561;-73
2022/12/23 13:39:21;;;;;;;5.53;4.47;;;10.20;99.90;;;;;;5029472;28;20458;-69